createdAt,value
2017-12-19T00:00:30.692Z,23.3
2017-12-19T00:01:38.773Z,23.3
2017-12-19T00:02:46.859Z,23.4
2017-12-19T00:03:54.944Z,23.3
2017-12-19T00:05:03.031Z,23.3
2017-12-19T00:06:11.126Z,23.4
2017-12-19T00:07:19.265Z,23.4
2017-12-19T00:08:27.296Z,23.4
2017-12-19T00:09:35.389Z,23.3
2017-12-19T00:10:43.469Z,23.4
2017-12-19T00:11:51.553Z,23.4
2017-12-19T00:12:59.640Z,23.5
2017-12-19T00:14:07.725Z,23.5
2017-12-19T00:15:15.813Z,23.4
2017-12-19T00:16:23.897Z,23.5
2017-12-19T00:17:32.056Z,23.5
2017-12-19T00:18:40.144Z,23.5
2017-12-19T00:19:48.229Z,23.6
2017-12-19T00:20:56.317Z,23.6
2017-12-19T00:22:04.405Z,23.6
2017-12-19T00:23:12.491Z,23.6
2017-12-19T00:24:20.575Z,23.6
2017-12-19T00:25:28.662Z,23.7
2017-12-19T00:26:36.746Z,23.6
2017-12-19T00:27:44.835Z,23.6
2017-12-19T00:28:52.922Z,23.7
2017-12-19T00:30:01.262Z,23.7
2017-12-19T00:31:09.112Z,23.7
2017-12-19T00:32:17.197Z,23.7
2017-12-19T00:33:25.284Z,23.8
2017-12-19T00:34:33.372Z,23.7
2017-12-19T00:35:41.463Z,23.7
2017-12-19T00:36:49.557Z,23.8
2017-12-19T00:37:57.642Z,23.8
2017-12-19T00:39:05.733Z,23.8
2017-12-19T00:40:13.820Z,23.8
2017-12-19T00:41:21.909Z,23.7
2017-12-19T00:42:29.995Z,23.7
2017-12-19T00:43:38.083Z,23.8
2017-12-19T00:44:46.169Z,23.8
2017-12-19T00:45:54.265Z,23.9
2017-12-19T00:47:02.349Z,23.9
2017-12-19T00:48:10.445Z,23.8
2017-12-19T00:49:18.533Z,23.9
2017-12-19T00:50:26.623Z,23.9
2017-12-19T00:51:34.713Z,24.0
2017-12-19T00:52:42.793Z,23.9
2017-12-19T00:53:50.901Z,24.0
2017-12-19T00:54:58.967Z,24.0
2017-12-19T00:56:07.052Z,23.9
2017-12-19T00:57:15.139Z,23.9
2017-12-19T00:58:23.227Z,23.9
2017-12-19T00:59:31.315Z,23.9
2017-12-19T01:00:39.401Z,23.9
2017-12-19T01:01:47.490Z,23.9
2017-12-19T01:02:55.574Z,23.9
2017-12-19T01:04:03.661Z,23.9
2017-12-19T01:05:11.749Z,23.9
2017-12-19T01:06:19.838Z,23.9
2017-12-19T01:07:27.924Z,24.0
2017-12-19T01:08:36.012Z,23.9
2017-12-19T01:09:44.103Z,24.0
2017-12-19T01:10:52.187Z,23.9
2017-12-19T01:12:00.275Z,24.0
2017-12-19T01:13:08.359Z,23.9
2017-12-19T01:14:16.451Z,24.0
2017-12-19T01:15:24.533Z,24.0
2017-12-19T01:16:32.640Z,24.0
2017-12-19T01:17:40.711Z,24.0
2017-12-19T01:18:48.797Z,23.9
2017-12-19T01:19:56.885Z,24.0
2017-12-19T01:21:04.969Z,24.0
2017-12-19T01:22:13.057Z,24.0
2017-12-19T01:23:21.144Z,24.0
2017-12-19T01:24:29.232Z,23.9
2017-12-19T01:25:37.324Z,24.0
2017-12-19T01:26:45.411Z,24.0
2017-12-19T01:27:53.499Z,24.1
2017-12-19T01:29:01.587Z,24.0
2017-12-19T01:30:09.673Z,24.0
2017-12-19T01:31:17.759Z,24.0
2017-12-19T01:32:25.847Z,24.1
2017-12-19T01:33:33.933Z,24.0
2017-12-19T01:34:42.023Z,24.0
2017-12-19T01:35:50.109Z,24.0
2017-12-19T01:36:58.262Z,24.0
2017-12-19T01:38:06.289Z,24.1
2017-12-19T01:39:14.376Z,24.1
2017-12-19T01:40:22.459Z,24.0
2017-12-19T01:41:30.607Z,24.1
2017-12-19T01:42:38.694Z,23.9
2017-12-19T01:43:46.786Z,24.0
2017-12-19T01:44:54.868Z,24.0
2017-12-19T01:46:02.966Z,24.0
2017-12-19T01:47:11.051Z,24.0
2017-12-19T01:48:19.140Z,24.0
2017-12-19T01:49:27.227Z,24.0
2017-12-19T01:50:35.314Z,24.0
2017-12-19T01:51:43.404Z,24.0
2017-12-19T01:52:51.489Z,24.1
2017-12-19T01:53:59.576Z,23.9
2017-12-19T01:55:07.660Z,24.0
2017-12-19T01:56:15.749Z,24.0
2017-12-19T01:57:23.835Z,24.0
2017-12-19T01:58:31.924Z,23.9
2017-12-19T01:59:40.077Z,23.9
2017-12-19T02:00:48.180Z,24.0
2017-12-19T02:01:56.268Z,24.0
2017-12-19T02:03:04.373Z,23.9
2017-12-19T02:04:12.443Z,23.9
2017-12-19T02:05:20.538Z,24.0
2017-12-19T02:06:28.617Z,23.9
2017-12-19T02:07:36.702Z,23.9
2017-12-19T02:08:44.791Z,23.9
2017-12-19T02:09:52.874Z,23.9
2017-12-19T02:11:00.962Z,23.9
2017-12-19T02:12:09.058Z,23.9
2017-12-19T02:13:17.139Z,23.9
2017-12-19T02:14:25.244Z,23.9
2017-12-19T02:15:33.316Z,23.9
2017-12-19T02:16:41.398Z,23.9
2017-12-19T02:17:49.483Z,23.8
2017-12-19T02:18:57.571Z,23.9
2017-12-19T02:20:05.669Z,23.9
2017-12-19T02:21:13.761Z,23.9
2017-12-19T02:22:21.847Z,23.8
2017-12-19T02:23:29.934Z,23.8
2017-12-19T02:24:38.023Z,23.8
2017-12-19T02:25:46.113Z,23.9
2017-12-19T02:26:54.205Z,23.9
2017-12-19T02:28:02.288Z,23.8
2017-12-19T02:29:10.373Z,23.8
2017-12-19T02:30:18.463Z,23.8
2017-12-19T02:31:26.545Z,23.8
2017-12-19T02:32:34.633Z,23.8
2017-12-19T02:33:42.718Z,23.8
2017-12-19T02:34:50.816Z,23.7
2017-12-19T02:35:58.900Z,23.7
2017-12-19T02:37:06.990Z,23.8
2017-12-19T02:38:15.077Z,23.8
2017-12-19T02:39:23.161Z,23.8
2017-12-19T02:40:31.249Z,23.8
2017-12-19T02:41:39.340Z,23.7
2017-12-19T02:42:47.423Z,23.7
2017-12-19T02:43:55.512Z,23.8
2017-12-19T02:45:03.606Z,23.8
2017-12-19T02:46:11.693Z,23.7
2017-12-19T02:47:19.779Z,23.7
2017-12-19T02:48:27.869Z,23.6
2017-12-19T02:49:35.954Z,23.7
2017-12-19T02:50:44.044Z,23.7
2017-12-19T02:51:52.127Z,23.7
2017-12-19T02:53:00.217Z,23.6
2017-12-19T02:54:08.306Z,23.6
2017-12-19T02:55:16.395Z,23.6
2017-12-19T02:56:24.479Z,23.6
2017-12-19T02:57:32.566Z,23.7
2017-12-19T02:58:40.658Z,23.6
2017-12-19T02:59:48.742Z,23.6
2017-12-19T03:00:56.830Z,23.5
2017-12-19T03:02:04.917Z,23.6
2017-12-19T03:03:13.004Z,23.6
2017-12-19T03:04:21.092Z,23.5
2017-12-19T03:05:29.179Z,23.6
2017-12-19T03:06:37.274Z,23.5
2017-12-19T03:07:45.361Z,23.5
2017-12-19T03:08:53.449Z,23.5
2017-12-19T03:10:01.533Z,23.4
2017-12-19T03:11:09.633Z,23.6
2017-12-19T03:12:17.714Z,23.6
2017-12-19T03:13:25.801Z,23.5
2017-12-19T03:14:33.888Z,23.6
2017-12-19T03:15:41.976Z,23.5
2017-12-19T03:16:50.064Z,23.4
2017-12-19T03:17:58.158Z,23.5
2017-12-19T03:19:06.249Z,23.5
2017-12-19T03:20:14.335Z,23.4
2017-12-19T03:21:22.421Z,23.5
2017-12-19T03:22:30.510Z,23.5
2017-12-19T03:23:38.597Z,23.4
2017-12-19T03:24:46.682Z,23.4
2017-12-19T03:25:54.795Z,23.4
2017-12-19T03:27:02.859Z,23.4
2017-12-19T03:28:10.946Z,23.4
2017-12-19T03:29:19.034Z,23.4
2017-12-19T03:30:27.123Z,23.3
2017-12-19T03:31:35.204Z,23.3
2017-12-19T03:32:43.292Z,23.3
2017-12-19T03:33:51.386Z,23.3
2017-12-19T03:34:59.464Z,23.3
2017-12-19T03:36:07.552Z,23.3
2017-12-19T03:37:15.644Z,23.3
2017-12-19T03:38:23.727Z,23.4
2017-12-19T03:39:31.815Z,23.3
2017-12-19T03:40:39.901Z,23.3
2017-12-19T03:41:47.991Z,23.2
2017-12-19T03:42:56.073Z,23.3
2017-12-19T03:44:04.168Z,23.2
2017-12-19T03:45:12.249Z,23.2
2017-12-19T03:46:20.336Z,23.1
2017-12-19T03:47:28.431Z,23.2
2017-12-19T03:48:36.510Z,23.1
2017-12-19T03:49:44.598Z,23.1
2017-12-19T03:50:52.682Z,23.1
2017-12-19T03:52:00.813Z,23.1
2017-12-19T03:53:08.906Z,23.2
2017-12-19T03:54:16.987Z,23.1
2017-12-19T03:55:25.073Z,23.1
2017-12-19T03:56:33.161Z,23.1
2017-12-19T03:57:41.248Z,23.1
2017-12-19T03:58:49.343Z,23.1
2017-12-19T03:59:57.427Z,23.1
2017-12-19T04:01:05.516Z,23.1
2017-12-19T04:02:13.603Z,23.0
2017-12-19T04:03:21.692Z,23.0
2017-12-19T04:04:29.783Z,23.0
2017-12-19T04:05:37.882Z,23.0
2017-12-19T04:06:45.957Z,23.0
2017-12-19T04:07:54.039Z,23.0
2017-12-19T04:09:02.125Z,23.0
2017-12-19T04:10:10.211Z,23.0
2017-12-19T04:11:18.301Z,22.9
2017-12-19T04:12:26.387Z,23.0
2017-12-19T04:13:34.476Z,22.9
2017-12-19T04:14:42.612Z,23.0
2017-12-19T04:15:50.648Z,22.9
2017-12-19T04:16:58.732Z,22.8
2017-12-19T04:18:06.827Z,22.8
2017-12-19T04:19:14.913Z,22.9
2017-12-19T04:20:23.000Z,22.9
2017-12-19T04:21:31.091Z,22.8
2017-12-19T04:22:39.177Z,22.8
2017-12-19T04:23:47.285Z,22.8
2017-12-19T04:24:55.367Z,22.7
2017-12-19T04:26:03.454Z,22.8
2017-12-19T04:27:11.541Z,22.7
2017-12-19T04:28:19.627Z,22.8
2017-12-19T04:29:27.717Z,22.8
2017-12-19T04:30:35.800Z,22.8
2017-12-19T04:31:43.885Z,22.8
2017-12-19T04:32:51.974Z,22.8
2017-12-19T04:34:00.063Z,22.7
2017-12-19T04:35:08.144Z,22.6
2017-12-19T04:36:16.235Z,22.6
2017-12-19T04:37:24.318Z,22.6
2017-12-19T04:38:32.404Z,22.6
2017-12-19T04:39:40.502Z,22.6
2017-12-19T04:40:48.575Z,22.6
2017-12-19T04:41:56.664Z,22.6
2017-12-19T04:43:04.757Z,22.6
2017-12-19T04:44:12.837Z,22.6
2017-12-19T04:45:20.923Z,22.6
2017-12-19T04:46:29.011Z,22.6
2017-12-19T04:47:37.098Z,22.6
2017-12-19T04:48:45.184Z,22.5
2017-12-19T04:49:53.270Z,22.5
2017-12-19T04:51:01.356Z,22.6
2017-12-19T04:52:09.833Z,22.5
2017-12-19T04:53:17.531Z,22.5
2017-12-19T04:54:25.618Z,22.6
2017-12-19T04:55:34.015Z,22.5
2017-12-19T04:56:42.104Z,22.5
2017-12-19T04:57:50.184Z,22.4
2017-12-19T04:58:58.272Z,22.5
2017-12-19T05:00:06.395Z,22.4
2017-12-19T05:01:14.450Z,22.4
2017-12-19T05:02:22.546Z,22.4
2017-12-19T05:03:30.622Z,22.4
2017-12-19T05:04:38.718Z,22.3
2017-12-19T05:05:46.803Z,22.4
2017-12-19T05:06:54.892Z,22.3
2017-12-19T05:08:02.976Z,22.3
2017-12-19T05:09:11.063Z,22.3
2017-12-19T05:10:19.149Z,22.3
2017-12-19T05:11:27.236Z,22.3
2017-12-19T05:12:35.321Z,22.2
2017-12-19T05:13:43.410Z,22.2
2017-12-19T05:14:51.494Z,22.2
2017-12-19T05:15:59.589Z,22.2
2017-12-19T05:17:07.701Z,22.2
2017-12-19T05:18:15.786Z,22.2
2017-12-19T05:19:23.890Z,22.1
2017-12-19T05:20:31.966Z,22.0
2017-12-19T05:21:40.052Z,22.1
2017-12-19T05:22:48.137Z,22.0
2017-12-19T05:23:56.224Z,22.1
2017-12-19T05:25:04.312Z,22.1
2017-12-19T05:26:12.401Z,22.0
2017-12-19T05:27:20.496Z,22.0
2017-12-19T05:28:28.593Z,22.0
2017-12-19T05:29:36.761Z,21.9
2017-12-19T05:30:44.757Z,22.0
2017-12-19T05:31:52.841Z,21.9
2017-12-19T05:33:00.928Z,21.9
2017-12-19T05:34:09.014Z,21.9
2017-12-19T05:35:17.100Z,21.9
2017-12-19T05:36:25.186Z,21.9
2017-12-19T05:37:33.272Z,21.9
2017-12-19T05:38:41.363Z,21.9
2017-12-19T05:39:49.443Z,21.9
2017-12-19T05:40:57.528Z,21.9
2017-12-19T05:42:05.615Z,21.8
2017-12-19T05:43:13.699Z,21.8
2017-12-19T05:44:21.835Z,21.8
2017-12-19T05:45:29.931Z,21.8
2017-12-19T05:46:38.008Z,21.8
2017-12-19T05:47:46.092Z,21.8
2017-12-19T05:48:54.187Z,21.8
2017-12-19T05:50:02.369Z,21.8
2017-12-19T05:51:10.369Z,21.8
2017-12-19T05:52:18.455Z,21.7
2017-12-19T05:53:26.539Z,21.7
2017-12-19T05:54:34.625Z,21.7
2017-12-19T05:55:42.712Z,21.7
2017-12-19T05:56:50.826Z,21.7
2017-12-19T05:57:58.898Z,21.7
2017-12-19T05:59:06.977Z,21.7
2017-12-19T06:00:15.062Z,21.7
2017-12-19T06:01:23.167Z,21.7
2017-12-19T06:02:31.242Z,21.7
2017-12-19T06:03:39.338Z,21.7
2017-12-19T06:04:47.414Z,21.7
2017-12-19T06:05:55.500Z,21.7
2017-12-19T06:07:03.592Z,21.8
2017-12-19T06:08:11.672Z,21.7
2017-12-19T06:09:19.756Z,21.8
2017-12-19T06:10:27.844Z,21.7
2017-12-19T06:11:37.055Z,21.8
2017-12-19T06:12:45.140Z,21.7
2017-12-19T06:13:53.226Z,21.7
2017-12-19T06:15:01.684Z,21.7
2017-12-19T06:16:09.396Z,21.7
2017-12-19T06:17:17.487Z,21.7
2017-12-19T06:18:25.569Z,21.7
2017-12-19T06:19:33.652Z,21.7
2017-12-19T06:20:42.978Z,21.8
2017-12-19T06:21:49.827Z,21.7
2017-12-19T06:22:57.912Z,21.7
2017-12-19T06:24:05.996Z,21.7
2017-12-19T06:25:14.085Z,21.8
2017-12-19T06:26:22.168Z,21.8
2017-12-19T06:27:30.253Z,21.8
2017-12-19T06:28:38.339Z,21.8
2017-12-19T06:29:46.426Z,21.8
2017-12-19T06:30:54.510Z,21.8
2017-12-19T06:32:02.597Z,21.8
2017-12-19T06:33:10.684Z,21.8
2017-12-19T06:34:18.766Z,21.8
2017-12-19T06:35:26.853Z,21.8
2017-12-19T06:36:34.941Z,21.8
2017-12-19T06:37:43.028Z,21.8
2017-12-19T06:38:51.110Z,21.9
2017-12-19T06:39:59.213Z,21.9
2017-12-19T06:41:07.290Z,21.9
2017-12-19T06:42:15.378Z,21.9
2017-12-19T06:43:23.469Z,21.9
2017-12-19T06:44:31.566Z,21.9
2017-12-19T06:45:39.708Z,22.0
2017-12-19T06:46:47.747Z,21.9
2017-12-19T06:47:55.832Z,22.0
2017-12-19T06:49:03.918Z,21.9
2017-12-19T06:50:12.012Z,22.0
2017-12-19T06:51:20.090Z,22.0
2017-12-19T06:52:28.176Z,22.0
2017-12-19T06:53:36.262Z,22.1
2017-12-19T06:54:44.419Z,22.1
2017-12-19T06:55:52.503Z,22.1
2017-12-19T06:57:00.595Z,22.1
2017-12-19T06:58:08.678Z,22.1
2017-12-19T06:59:16.764Z,22.1
2017-12-19T07:00:24.852Z,22.2
2017-12-19T07:01:32.937Z,22.0
2017-12-19T07:02:41.024Z,22.1
2017-12-19T07:03:49.111Z,22.2
2017-12-19T07:04:57.192Z,22.2
2017-12-19T07:06:05.280Z,22.2
2017-12-19T07:07:13.369Z,22.3
2017-12-19T07:08:21.457Z,22.3
2017-12-19T07:09:29.548Z,22.3
2017-12-19T07:10:37.625Z,22.2
2017-12-19T07:11:45.709Z,22.2
2017-12-19T07:12:53.793Z,22.3
2017-12-19T07:14:01.896Z,22.3
2017-12-19T07:15:09.978Z,22.3
2017-12-19T07:16:18.085Z,22.3
2017-12-19T07:17:26.180Z,22.3
2017-12-19T07:18:34.271Z,22.3
2017-12-19T07:19:42.351Z,22.3
2017-12-19T07:20:50.438Z,22.3
2017-12-19T07:21:58.529Z,22.4
2017-12-19T07:23:06.610Z,22.4
2017-12-19T07:24:14.697Z,22.4
2017-12-19T07:25:22.783Z,22.4
2017-12-19T07:26:30.868Z,22.4
2017-12-19T07:27:38.951Z,22.5
2017-12-19T07:28:47.042Z,22.5
2017-12-19T07:29:55.126Z,22.5
2017-12-19T07:31:03.209Z,22.5
2017-12-19T07:32:11.306Z,22.6
2017-12-19T07:33:19.390Z,22.5
2017-12-19T07:34:27.477Z,22.5
2017-12-19T07:35:35.816Z,22.6
2017-12-19T07:36:43.901Z,22.5
2017-12-19T07:37:51.990Z,22.5
2017-12-19T07:39:00.078Z,22.6
2017-12-19T07:40:08.164Z,22.6
2017-12-19T07:41:16.282Z,22.6
2017-12-19T07:42:24.374Z,22.6
2017-12-19T07:43:32.456Z,22.6
2017-12-19T07:44:40.540Z,22.6
2017-12-19T07:45:48.626Z,22.6
2017-12-19T07:46:56.715Z,22.6
2017-12-19T07:48:04.808Z,22.6
2017-12-19T07:49:12.882Z,22.6
2017-12-19T07:50:20.969Z,22.6
2017-12-19T07:51:29.061Z,22.6
2017-12-19T07:52:37.140Z,22.6
2017-12-19T07:53:45.246Z,22.6
2017-12-19T07:54:53.314Z,22.6
2017-12-19T07:56:01.400Z,22.6
2017-12-19T07:57:09.486Z,22.6
2017-12-19T07:58:17.570Z,22.8
2017-12-19T07:59:25.660Z,22.7
2017-12-19T08:00:33.742Z,22.7
2017-12-19T08:01:41.832Z,22.8
2017-12-19T08:02:49.917Z,22.7
2017-12-19T08:03:58.004Z,22.8
2017-12-19T08:05:06.090Z,22.7
2017-12-19T08:06:14.176Z,22.8
2017-12-19T08:07:22.261Z,22.8
2017-12-19T08:08:30.355Z,22.8
2017-12-19T08:09:38.441Z,22.8
2017-12-19T08:10:46.824Z,22.7
2017-12-19T08:11:54.614Z,22.8
2017-12-19T08:13:02.699Z,22.8
2017-12-19T08:14:10.787Z,22.8
2017-12-19T08:15:18.873Z,22.9
2017-12-19T08:16:26.957Z,22.8
2017-12-19T08:17:35.044Z,22.8
2017-12-19T08:18:43.135Z,22.8
2017-12-19T08:19:51.226Z,22.8
2017-12-19T08:20:59.305Z,22.8
2017-12-19T08:22:07.632Z,22.9
2017-12-19T08:23:15.476Z,22.8
2017-12-19T08:24:23.561Z,22.8
2017-12-19T08:25:31.651Z,22.9
2017-12-19T08:26:39.733Z,22.9
2017-12-19T08:27:47.820Z,22.9
2017-12-19T08:28:55.906Z,22.9
2017-12-19T08:30:03.996Z,22.8
2017-12-19T08:31:12.097Z,22.8
2017-12-19T08:32:20.176Z,22.9
2017-12-19T08:33:28.262Z,22.8
2017-12-19T08:34:36.346Z,22.9
2017-12-19T08:35:44.440Z,22.9
2017-12-19T08:36:52.530Z,22.9
2017-12-19T08:38:00.609Z,22.9
2017-12-19T08:39:08.706Z,22.9
2017-12-19T08:40:16.805Z,23.0
2017-12-19T08:41:24.867Z,22.9
2017-12-19T08:42:33.046Z,22.9
2017-12-19T08:43:41.042Z,22.9
2017-12-19T08:44:49.121Z,22.9
2017-12-19T08:45:57.211Z,22.9
2017-12-19T08:47:05.295Z,22.9
2017-12-19T08:48:13.382Z,22.9
2017-12-19T08:49:21.472Z,22.9
2017-12-19T08:50:29.573Z,22.9
2017-12-19T08:51:37.656Z,23.0
2017-12-19T08:52:45.751Z,22.9
2017-12-19T08:53:53.828Z,23.0
2017-12-19T08:55:01.915Z,23.0
2017-12-19T08:56:10.003Z,22.9
2017-12-19T08:57:18.109Z,23.0
2017-12-19T08:58:26.182Z,22.9
2017-12-19T08:59:34.261Z,23.0
2017-12-19T09:00:42.389Z,22.9
2017-12-19T09:01:50.442Z,23.0
2017-12-19T09:02:58.528Z,22.9
2017-12-19T09:04:06.614Z,22.9
2017-12-19T09:05:14.703Z,23.0
2017-12-19T09:06:22.788Z,22.9
2017-12-19T09:07:30.885Z,22.9
2017-12-19T09:08:38.961Z,23.0
2017-12-19T09:09:47.045Z,23.0
2017-12-19T09:10:55.153Z,23.0
2017-12-19T09:12:03.245Z,22.9
2017-12-19T09:13:11.331Z,23.0
2017-12-19T09:14:19.418Z,22.9
2017-12-19T09:15:27.504Z,22.9
2017-12-19T09:16:35.591Z,23.0
2017-12-19T09:17:43.698Z,23.0
2017-12-19T09:18:51.765Z,23.0
2017-12-19T09:19:59.855Z,22.9
2017-12-19T09:21:07.960Z,22.9
2017-12-19T09:22:16.025Z,23.0
2017-12-19T09:23:24.112Z,23.0
2017-12-19T09:24:32.200Z,23.0
2017-12-19T09:25:40.289Z,22.9
2017-12-19T09:26:48.383Z,23.1
2017-12-19T09:27:56.463Z,22.9
2017-12-19T09:29:04.551Z,22.9
2017-12-19T09:30:12.637Z,22.9
2017-12-19T09:31:20.726Z,23.0
2017-12-19T09:32:28.808Z,23.0
2017-12-19T09:33:36.894Z,22.9
2017-12-19T09:34:44.981Z,22.9
2017-12-19T09:35:53.071Z,23.0
2017-12-19T09:37:01.153Z,23.0
2017-12-19T09:38:09.239Z,22.9
2017-12-19T09:39:17.329Z,22.9
2017-12-19T09:40:25.419Z,23.0
2017-12-19T09:41:33.530Z,22.9
2017-12-19T09:42:42.054Z,22.9
2017-12-19T09:43:50.148Z,22.9
2017-12-19T09:44:58.228Z,22.9
2017-12-19T09:46:06.316Z,23.0
2017-12-19T09:47:14.406Z,23.0
2017-12-19T09:48:22.487Z,23.0
2017-12-19T09:49:30.575Z,23.0
2017-12-19T09:50:38.662Z,22.9
2017-12-19T09:51:46.747Z,23.0
2017-12-19T09:52:54.832Z,23.0
2017-12-19T09:54:02.919Z,22.9
2017-12-19T09:55:11.005Z,22.9
2017-12-19T09:56:19.112Z,23.0
2017-12-19T09:57:27.179Z,22.9
2017-12-19T09:58:35.266Z,22.8
2017-12-19T09:59:43.354Z,22.8
2017-12-19T10:00:51.439Z,22.9
2017-12-19T10:01:59.531Z,22.9
2017-12-19T10:03:07.613Z,22.9
2017-12-19T10:04:15.707Z,22.8
2017-12-19T10:05:23.785Z,22.9
2017-12-19T10:06:31.881Z,22.9
2017-12-19T10:07:39.958Z,22.9
2017-12-19T10:08:48.044Z,22.9
2017-12-19T10:09:56.131Z,22.9
2017-12-19T10:11:04.381Z,22.9
2017-12-19T10:12:12.491Z,22.9
2017-12-19T10:13:20.551Z,22.9
2017-12-19T10:14:28.642Z,22.8
2017-12-19T10:15:36.731Z,22.9
2017-12-19T10:16:44.813Z,22.8
2017-12-19T10:17:52.897Z,22.8
2017-12-19T10:19:00.987Z,22.8
2017-12-19T10:20:09.081Z,22.8
2017-12-19T10:21:17.171Z,22.8
2017-12-19T10:22:25.255Z,22.8
2017-12-19T10:23:33.342Z,22.8
2017-12-19T10:24:41.428Z,22.8
2017-12-19T10:25:49.513Z,22.8
2017-12-19T10:26:57.601Z,22.8
2017-12-19T10:28:05.690Z,22.7
2017-12-19T10:29:13.774Z,22.9
2017-12-19T10:30:21.860Z,22.7
2017-12-19T10:31:29.953Z,22.8
2017-12-19T10:32:38.035Z,22.8
2017-12-19T10:33:46.119Z,22.8
2017-12-19T10:34:54.206Z,22.7
2017-12-19T10:36:02.293Z,22.8
2017-12-19T10:37:10.382Z,22.8
2017-12-19T10:38:18.467Z,22.8
2017-12-19T10:39:26.551Z,22.8
2017-12-19T10:40:34.638Z,22.8
2017-12-19T10:41:42.727Z,22.7
2017-12-19T10:42:50.832Z,22.8
2017-12-19T10:43:58.901Z,22.8
2017-12-19T10:45:06.985Z,22.7
2017-12-19T10:46:15.070Z,22.7
2017-12-19T10:47:23.159Z,22.7
2017-12-19T10:48:31.246Z,22.8
2017-12-19T10:49:39.329Z,22.8
2017-12-19T10:50:47.417Z,22.6
2017-12-19T10:51:55.505Z,22.7
2017-12-19T10:53:03.597Z,22.6
2017-12-19T10:54:11.684Z,22.6
2017-12-19T10:55:19.773Z,22.6
2017-12-19T10:56:27.860Z,22.6
2017-12-19T10:57:35.944Z,22.6
2017-12-19T10:58:44.032Z,22.7
2017-12-19T10:59:52.116Z,22.6
2017-12-19T11:01:00.205Z,22.6
2017-12-19T11:02:08.571Z,22.6
2017-12-19T11:03:16.658Z,22.6
2017-12-19T11:04:24.746Z,22.6
2017-12-19T11:05:32.835Z,22.6
2017-12-19T11:06:40.921Z,22.6
2017-12-19T11:07:49.006Z,22.6
2017-12-19T11:08:57.092Z,22.6
2017-12-19T11:10:05.177Z,22.6
2017-12-19T11:11:13.268Z,22.6
2017-12-19T11:12:21.354Z,22.6
2017-12-19T11:13:29.458Z,22.6
2017-12-19T11:14:37.546Z,22.6
2017-12-19T11:15:45.641Z,22.6
2017-12-19T11:16:53.725Z,22.6
2017-12-19T11:18:01.814Z,22.5
2017-12-19T11:19:09.898Z,22.5
2017-12-19T11:20:17.983Z,22.6
2017-12-19T11:21:26.069Z,22.6
2017-12-19T11:22:34.157Z,22.5
2017-12-19T11:23:42.414Z,22.5
2017-12-19T11:24:50.330Z,22.5
2017-12-19T11:25:58.416Z,22.5
2017-12-19T11:27:06.530Z,22.5
2017-12-19T11:28:14.596Z,22.5
2017-12-19T11:29:22.682Z,22.5
2017-12-19T11:30:30.779Z,22.5
2017-12-19T11:31:38.866Z,22.5
2017-12-19T11:32:46.954Z,22.5
2017-12-19T11:33:55.039Z,22.5
2017-12-19T11:35:03.125Z,22.5
2017-12-19T11:36:11.218Z,22.5
2017-12-19T11:37:19.306Z,22.5
2017-12-19T11:38:27.392Z,22.5
2017-12-19T11:39:35.485Z,22.4
2017-12-19T11:40:43.570Z,22.3
2017-12-19T11:41:51.657Z,22.4
2017-12-19T11:42:59.748Z,22.3
2017-12-19T11:44:07.830Z,22.4
2017-12-19T11:45:15.915Z,22.4
2017-12-19T11:46:24.011Z,22.4
2017-12-19T11:47:32.186Z,22.4
2017-12-19T11:48:40.197Z,22.3
2017-12-19T11:49:48.282Z,22.3
2017-12-19T11:50:56.367Z,22.3
2017-12-19T11:52:04.458Z,22.2
2017-12-19T11:53:12.537Z,22.3
2017-12-19T11:54:20.628Z,22.3
2017-12-19T11:55:28.710Z,22.3
2017-12-19T11:56:36.799Z,22.2
2017-12-19T11:57:44.883Z,22.3
2017-12-19T11:58:52.969Z,22.3
2017-12-19T12:00:01.144Z,22.3
2017-12-19T12:01:09.143Z,22.2
2017-12-19T12:02:17.227Z,22.2
2017-12-19T12:03:25.312Z,22.3
2017-12-19T12:04:33.418Z,22.2
2017-12-19T12:05:41.488Z,22.2
2017-12-19T12:06:49.574Z,22.2
2017-12-19T12:07:57.656Z,22.2
2017-12-19T12:09:05.744Z,22.2
2017-12-19T12:10:13.830Z,22.2
2017-12-19T12:11:21.918Z,22.2
2017-12-19T12:12:30.000Z,22.2
2017-12-19T12:13:38.089Z,22.1
2017-12-19T12:14:46.174Z,22.1
2017-12-19T12:15:54.278Z,22.1
2017-12-19T12:17:02.349Z,22.0
2017-12-19T12:18:10.438Z,22.1
2017-12-19T12:19:18.521Z,22.1
2017-12-19T12:20:26.603Z,22.1
2017-12-19T12:21:34.694Z,22.1
2017-12-19T12:22:42.779Z,22.1
2017-12-19T12:23:50.865Z,22.1
2017-12-19T12:24:58.955Z,22.0
2017-12-19T12:26:07.038Z,22.1
2017-12-19T12:27:15.369Z,22.1
2017-12-19T12:28:23.210Z,22.0
2017-12-19T12:29:31.299Z,22.0
2017-12-19T12:30:39.381Z,22.0
2017-12-19T12:31:47.470Z,22.0
2017-12-19T12:32:55.553Z,22.0
2017-12-19T12:34:03.638Z,21.9
2017-12-19T12:35:11.734Z,22.0
2017-12-19T12:36:19.811Z,21.9
2017-12-19T12:37:27.898Z,22.0
2017-12-19T12:38:35.986Z,21.9
2017-12-19T12:39:44.071Z,21.9
2017-12-19T12:40:52.155Z,22.0
2017-12-19T12:42:00.240Z,21.9
2017-12-19T12:43:08.325Z,21.9
2017-12-19T12:44:16.414Z,21.9
2017-12-19T12:45:24.515Z,21.9
2017-12-19T12:46:32.586Z,21.9
2017-12-19T12:47:40.672Z,21.8
2017-12-19T12:48:48.758Z,21.8
2017-12-19T12:49:56.844Z,21.8
2017-12-19T12:51:04.929Z,21.8
2017-12-19T12:52:13.012Z,21.8
2017-12-19T12:53:21.150Z,21.7
2017-12-19T12:54:29.185Z,21.8
2017-12-19T12:55:37.272Z,21.7
2017-12-19T12:56:45.362Z,21.7
2017-12-19T12:57:53.445Z,21.7
2017-12-19T12:59:01.535Z,21.7
2017-12-19T13:00:09.618Z,21.7
2017-12-19T13:01:17.701Z,21.8
2017-12-19T13:02:25.787Z,21.8
2017-12-19T13:03:33.873Z,21.7
2017-12-19T13:04:41.964Z,21.7
2017-12-19T13:05:50.136Z,21.7
2017-12-19T13:06:58.131Z,21.7
2017-12-19T13:08:06.219Z,21.6
2017-12-19T13:09:14.304Z,21.7
2017-12-19T13:10:22.388Z,21.6
2017-12-19T13:11:30.472Z,21.7
2017-12-19T13:12:38.557Z,21.6
2017-12-19T13:13:46.641Z,21.6
2017-12-19T13:14:54.733Z,21.7
2017-12-19T13:16:02.819Z,21.8
2017-12-19T13:17:10.905Z,21.6
2017-12-19T13:18:18.989Z,21.6
2017-12-19T13:19:27.076Z,21.6
2017-12-19T13:20:35.160Z,21.6
2017-12-19T13:21:43.248Z,21.6
2017-12-19T13:22:51.332Z,21.6
2017-12-19T13:23:59.417Z,21.6
2017-12-19T13:25:07.507Z,21.6
2017-12-19T13:26:15.587Z,21.5
2017-12-19T13:27:23.675Z,21.5
2017-12-19T13:28:31.762Z,21.5
2017-12-19T13:29:39.844Z,21.5
2017-12-19T13:30:47.930Z,21.5
2017-12-19T13:31:56.037Z,21.5
2017-12-19T13:33:04.133Z,21.5
2017-12-19T13:34:12.237Z,21.4
2017-12-19T13:35:20.305Z,21.4
2017-12-19T13:36:28.393Z,21.5
2017-12-19T13:37:36.478Z,21.4
2017-12-19T13:38:44.585Z,21.4
2017-12-19T13:39:52.648Z,21.4
2017-12-19T13:41:00.739Z,21.4
2017-12-19T13:42:08.817Z,21.4
2017-12-19T13:43:16.901Z,21.3
2017-12-19T13:44:24.987Z,21.3
2017-12-19T13:45:33.071Z,21.3
2017-12-19T13:46:41.158Z,21.4
2017-12-19T13:47:49.244Z,21.3
2017-12-19T13:48:57.328Z,21.3
2017-12-19T13:50:05.436Z,21.3
2017-12-19T13:51:13.498Z,21.2
2017-12-19T13:52:21.788Z,21.3
2017-12-19T13:53:29.873Z,21.3
2017-12-19T13:54:37.956Z,21.2
2017-12-19T13:55:46.044Z,21.2
2017-12-19T13:56:54.128Z,21.2
2017-12-19T13:58:02.212Z,21.1
2017-12-19T13:59:10.304Z,21.3
2017-12-19T14:00:18.385Z,21.1
2017-12-19T14:01:26.476Z,21.1
2017-12-19T14:02:34.556Z,21.0
2017-12-19T14:03:42.640Z,21.1
2017-12-19T14:04:50.724Z,21.1
2017-12-19T14:05:58.808Z,21.1
2017-12-19T14:07:06.893Z,21.1
2017-12-19T14:08:14.978Z,21.1
2017-12-19T14:09:23.065Z,21.0
2017-12-19T14:10:31.176Z,21.0
2017-12-19T14:11:39.271Z,21.0
2017-12-19T14:12:47.354Z,20.9
2017-12-19T14:13:55.442Z,20.9
2017-12-19T14:15:03.536Z,21.0
2017-12-19T14:16:11.621Z,21.0
2017-12-19T14:17:19.714Z,20.9
2017-12-19T14:18:28.017Z,20.9
2017-12-19T14:19:35.885Z,20.9
2017-12-19T14:20:43.980Z,20.9
2017-12-19T14:21:52.067Z,20.9
2017-12-19T14:23:00.153Z,20.9
2017-12-19T14:24:08.557Z,20.9
2017-12-19T14:25:16.344Z,20.9
2017-12-19T14:26:24.409Z,20.8
2017-12-19T14:27:32.497Z,20.8
2017-12-19T14:28:40.574Z,20.8
2017-12-19T14:29:48.668Z,20.7
2017-12-19T14:30:56.747Z,20.8
2017-12-19T14:32:04.830Z,20.8
2017-12-19T14:33:12.915Z,20.8
2017-12-19T14:34:21.003Z,20.8
2017-12-19T14:35:29.100Z,20.7
2017-12-19T14:36:37.170Z,20.8
2017-12-19T14:37:45.254Z,20.7
2017-12-19T14:38:53.339Z,20.7
2017-12-19T14:40:01.425Z,20.7
2017-12-19T14:41:09.513Z,20.6
2017-12-19T14:42:17.599Z,20.7
2017-12-19T14:43:25.682Z,20.7
2017-12-19T14:44:33.767Z,20.6
2017-12-19T14:45:41.853Z,20.6
2017-12-19T14:46:49.938Z,20.6
2017-12-19T14:47:58.021Z,20.6
2017-12-19T14:49:06.108Z,20.5
2017-12-19T14:50:14.193Z,20.5
2017-12-19T14:51:22.276Z,20.5
2017-12-19T14:52:30.374Z,20.5
2017-12-19T14:53:38.462Z,20.5
2017-12-19T14:54:46.546Z,20.5
2017-12-19T14:55:54.708Z,20.4
2017-12-19T14:57:02.716Z,20.4
2017-12-19T14:58:10.802Z,20.5
2017-12-19T14:59:18.924Z,20.4
2017-12-19T15:00:26.973Z,20.5
2017-12-19T15:01:35.071Z,20.5
2017-12-19T15:02:43.139Z,20.5
2017-12-19T15:03:51.236Z,20.5
2017-12-19T15:04:59.334Z,20.5
2017-12-19T15:06:07.418Z,20.5